sensor_id;sensor_type;location;lat;lon;timestamp;pressure;altitude;pressure_sealevel;temperature;humidity
57000;BME280;42891;50.006;21.964;2023-02-11T00:02:42;100591.19;;;-0.01;71.30
57000;BME280;42891;50.006;21.964;2023-02-11T00:06:43;100580.22;;;-0.15;71.31
57000;BME280;42891;50.006;21.964;2023-02-11T00:10:43;100565.38;;;-0.10;70.78
57000;BME280;42891;50.006;21.964;2023-02-11T00:14:45;100568.84;;;-0.09;71.29
57000;BME280;42891;50.006;21.964;2023-02-11T00:18:46;100576.75;;;-0.15;71.22
57000;BME280;42891;50.006;21.964;2023-02-11T00:22:46;100536.19;;;-0.21;70.75
57000;BME280;42891;50.006;21.964;2023-02-11T00:26:47;100557.75;;;-0.18;70.93
57000;BME280;42891;50.006;21.964;2023-02-11T00:30:53;100545.06;;;-0.33;70.83
57000;BME280;42891;50.006;21.964;2023-02-11T00:34:54;100558.53;;;-0.12;70.48
57000;BME280;42891;50.006;21.964;2023-02-11T00:38:55;100559.03;;;0.05;71.19
57000;BME280;42891;50.006;21.964;2023-02-11T00:42:56;100549.16;;;0.23;70.25
57000;BME280;42891;50.006;21.964;2023-02-11T00:46:56;100526.63;;;0.23;69.84
57000;BME280;42891;50.006;21.964;2023-02-11T00:50:56;100529.16;;;0.28;69.23
57000;BME280;42891;50.006;21.964;2023-02-11T00:54:57;100502.59;;;0.13;68.85
57000;BME280;42891;50.006;21.964;2023-02-11T00:58:57;100530.44;;;0.47;68.86
57000;BME280;42891;50.006;21.964;2023-02-11T01:02:57;100509.66;;;0.47;68.43
57000;BME280;42891;50.006;21.964;2023-02-11T01:06:58;100485.88;;;0.27;68.13
57000;BME280;42891;50.006;21.964;2023-02-11T01:11:00;100468.91;;;0.10;68.54
57000;BME280;42891;50.006;21.964;2023-02-11T01:15:01;100480.16;;;0.09;68.56
57000;BME280;42891;50.006;21.964;2023-02-11T01:19:01;100476.69;;;0.10;68.73
57000;BME280;42891;50.006;21.964;2023-02-11T01:23:02;100477.22;;;0.25;68.61
57000;BME280;42891;50.006;21.964;2023-02-11T01:27:02;100473.13;;;0.14;68.26
57000;BME280;42891;50.006;21.964;2023-02-11T01:31:02;100463.38;;;-0.15;68.70
57000;BME280;42891;50.006;21.964;2023-02-11T01:35:03;100460.69;;;-0.10;68.76
57000;BME280;42891;50.006;21.964;2023-02-11T01:39:04;100440.44;;;-0.37;70.22
57000;BME280;42891;50.006;21.964;2023-02-11T01:43:04;100451.16;;;-0.54;69.64
57000;BME280;42891;50.006;21.964;2023-02-11T01:47:05;100461.50;;;-0.52;70.30
57000;BME280;42891;50.006;21.964;2023-02-11T01:51:10;100452.03;;;-0.55;70.16
57000;BME280;42891;50.006;21.964;2023-02-11T01:55:12;100460.09;;;-0.69;69.80
57000;BME280;42891;50.006;21.964;2023-02-11T01:59:40;100451.34;;;-0.63;69.83
57000;BME280;42891;50.006;21.964;2023-02-11T02:03:44;100440.28;;;-0.73;70.02
57000;BME280;42891;50.006;21.964;2023-02-11T02:08:10;100431.75;;;-0.79;70.20
57000;BME280;42891;50.006;21.964;2023-02-11T02:12:10;100429.13;;;-0.76;70.35
57000;BME280;42891;50.006;21.964;2023-02-11T02:16:12;100408.47;;;-0.82;69.75
57000;BME280;42891;50.006;21.964;2023-02-11T02:37:26;100402.03;;;-1.07;69.73
57000;BME280;42891;50.006;21.964;2023-02-11T02:41:31;100407.97;;;-1.00;70.23
57000;BME280;42891;50.006;21.964;2023-02-11T02:45:32;100409.59;;;-0.94;69.63
57000;BME280;42891;50.006;21.964;2023-02-11T02:49:32;100406.13;;;-0.95;69.31
57000;BME280;42891;50.006;21.964;2023-02-11T03:06:16;100402.09;;;-1.11;69.27
57000;BME280;42891;50.006;21.964;2023-02-11T03:10:35;100415.81;;;-1.06;68.86
57000;BME280;42891;50.006;21.964;2023-02-11T03:14:37;100399.63;;;-1.17;68.28
57000;BME280;42891;50.006;21.964;2023-02-11T03:18:41;100409.19;;;-1.23;68.64
57000;BME280;42891;50.006;21.964;2023-02-11T03:26:54;100389.56;;;-1.38;68.99
57000;BME280;42891;50.006;21.964;2023-02-11T03:31:21;100387.94;;;-1.43;68.68
57000;BME280;42891;50.006;21.964;2023-02-11T03:35:31;100374.25;;;-1.48;69.37
57000;BME280;42891;50.006;21.964;2023-02-11T03:39:38;100335.72;;;-1.70;69.84
57000;BME280;42891;50.006;21.964;2023-02-11T03:43:43;100323.56;;;-1.65;69.98
57000;BME280;42891;50.006;21.964;2023-02-11T03:47:51;100330.38;;;-1.59;69.75
57000;BME280;42891;50.006;21.964;2023-02-11T03:51:53;100327.56;;;-1.47;70.00
57000;BME280;42891;50.006;21.964;2023-02-11T03:55:57;100320.00;;;-1.58;69.48
57000;BME280;42891;50.006;21.964;2023-02-11T03:59:59;100314.75;;;-1.55;69.99
57000;BME280;42891;50.006;21.964;2023-02-11T04:04:00;100318.09;;;-1.48;69.52
57000;BME280;42891;50.006;21.964;2023-02-11T04:08:00;100299.25;;;-1.56;69.80
57000;BME280;42891;50.006;21.964;2023-02-11T04:12:00;100280.09;;;-1.49;69.31
57000;BME280;42891;50.006;21.964;2023-02-11T04:16:00;100269.13;;;-1.62;70.07
57000;BME280;42891;50.006;21.964;2023-02-11T04:20:01;100262.72;;;-1.91;70.32
57000;BME280;42891;50.006;21.964;2023-02-11T04:24:01;100273.84;;;-1.85;70.65
57000;BME280;42891;50.006;21.964;2023-02-11T04:28:02;100265.91;;;-1.75;70.35
57000;BME280;42891;50.006;21.964;2023-02-11T04:32:02;100251.47;;;-1.90;69.72
57000;BME280;42891;50.006;21.964;2023-02-11T04:36:03;100253.31;;;-1.96;70.18
57000;BME280;42891;50.006;21.964;2023-02-11T04:40:03;100255.28;;;-2.11;70.05
57000;BME280;42891;50.006;21.964;2023-02-11T04:44:04;100241.44;;;-2.08;70.12
57000;BME280;42891;50.006;21.964;2023-02-11T04:48:05;100240.41;;;-1.98;69.49
57000;BME280;42891;50.006;21.964;2023-02-11T04:52:05;100228.25;;;-1.93;70.09
57000;BME280;42891;50.006;21.964;2023-02-11T04:56:05;100193.16;;;-2.09;69.46
57000;BME280;42891;50.006;21.964;2023-02-11T05:00:06;100205.06;;;-2.00;69.10
57000;BME280;42891;50.006;21.964;2023-02-11T05:04:07;100191.50;;;-2.13;69.58
57000;BME280;42891;50.006;21.964;2023-02-11T05:08:08;100203.75;;;-2.23;69.04
57000;BME280;42891;50.006;21.964;2023-02-11T05:12:09;100212.94;;;-2.05;70.16
57000;BME280;42891;50.006;21.964;2023-02-11T05:16:09;100237.94;;;-2.04;69.55
57000;BME280;42891;50.006;21.964;2023-02-11T05:20:10;100211.41;;;-2.18;68.39
57000;BME280;42891;50.006;21.964;2023-02-11T05:24:10;100217.47;;;-2.19;69.22
57000;BME280;42891;50.006;21.964;2023-02-11T05:28:10;100225.09;;;-2.12;68.80
57000;BME280;42891;50.006;21.964;2023-02-11T05:32:11;100244.75;;;-2.01;68.79
57000;BME280;42891;50.006;21.964;2023-02-11T05:36:12;100235.34;;;-2.04;68.61
57000;BME280;42891;50.006;21.964;2023-02-11T05:40:12;100255.06;;;-1.97;68.75
57000;BME280;42891;50.006;21.964;2023-02-11T05:44:13;100277.41;;;-1.91;68.98
57000;BME280;42891;50.006;21.964;2023-02-11T05:48:14;100291.81;;;-1.75;68.40
57000;BME280;42891;50.006;21.964;2023-02-11T05:52:14;100286.75;;;-1.84;68.01
57000;BME280;42891;50.006;21.964;2023-02-11T05:56:14;100284.75;;;-1.66;67.81
57000;BME280;42891;50.006;21.964;2023-02-11T06:00:15;100254.63;;;-1.70;67.72
57000;BME280;42891;50.006;21.964;2023-02-11T06:04:15;100237.59;;;-1.85;68.55
57000;BME280;42891;50.006;21.964;2023-02-11T06:08:16;100184.53;;;-2.11;68.71
57000;BME280;42891;50.006;21.964;2023-02-11T06:12:16;100114.38;;;-2.43;69.58
57000;BME280;42891;50.006;21.964;2023-02-11T06:16:16;100142.53;;;-2.26;69.41
57000;BME280;42891;50.006;21.964;2023-02-11T06:20:17;100133.84;;;-2.21;70.73
57000;BME280;42891;50.006;21.964;2023-02-11T06:24:17;100110.00;;;-2.39;70.50
57000;BME280;42891;50.006;21.964;2023-02-11T06:28:18;100117.09;;;-2.50;70.51
57000;BME280;42891;50.006;21.964;2023-02-11T06:32:18;100141.97;;;-2.43;70.47
57000;BME280;42891;50.006;21.964;2023-02-11T06:36:20;100134.88;;;-2.30;70.11
57000;BME280;42891;50.006;21.964;2023-02-11T06:40:21;100147.75;;;-2.27;69.14
57000;BME280;42891;50.006;21.964;2023-02-11T06:44:21;100136.38;;;-2.18;69.41
57000;BME280;42891;50.006;21.964;2023-02-11T06:48:23;100136.28;;;-2.14;69.36
57000;BME280;42891;50.006;21.964;2023-02-11T06:52:24;100136.28;;;-2.14;69.79
57000;BME280;42891;50.006;21.964;2023-02-11T06:56:24;100107.13;;;-2.22;69.51
57000;BME280;42891;50.006;21.964;2023-02-11T07:00:26;100124.72;;;-1.94;68.53
57000;BME280;42891;50.006;21.964;2023-02-11T07:04:28;100143.91;;;-2.06;68.58
57000;BME280;42891;50.006;21.964;2023-02-11T07:08:28;100123.84;;;-1.95;68.56
57000;BME280;42891;50.006;21.964;2023-02-11T07:12:29;100134.59;;;-2.15;68.45
57000;BME280;42891;50.006;21.964;2023-02-11T07:16:30;100138.66;;;-2.00;69.14
57000;BME280;42891;50.006;21.964;2023-02-11T07:20:30;100124.25;;;-2.15;68.65
57000;BME280;42891;50.006;21.964;2023-02-11T07:24:30;100115.69;;;-2.20;68.17
57000;BME280;42891;50.006;21.964;2023-02-11T07:28:31;100117.63;;;-2.31;68.71
57000;BME280;42891;50.006;21.964;2023-02-11T07:32:32;100120.81;;;-2.17;69.28
57000;BME280;42891;50.006;21.964;2023-02-11T07:36:33;100109.00;;;-2.30;69.16
57000;BME280;42891;50.006;21.964;2023-02-11T07:40:33;100088.03;;;-2.16;68.74
57000;BME280;42891;50.006;21.964;2023-02-11T07:44:33;100069.31;;;-2.31;68.56
57000;BME280;42891;50.006;21.964;2023-02-11T07:48:36;100075.94;;;-2.16;68.29
57000;BME280;42891;50.006;21.964;2023-02-11T07:52:36;100094.91;;;-2.15;68.84
57000;BME280;42891;50.006;21.964;2023-02-11T07:56:36;100040.09;;;-2.34;67.64
57000;BME280;42891;50.006;21.964;2023-02-11T08:00:37;100081.69;;;-2.01;68.35
57000;BME280;42891;50.006;21.964;2023-02-11T08:04:37;100074.25;;;-2.17;68.10
57000;BME280;42891;50.006;21.964;2023-02-11T08:08:38;100069.69;;;-2.04;67.84
57000;BME280;42891;50.006;21.964;2023-02-11T08:12:38;100071.09;;;-1.89;67.65
57000;BME280;42891;50.006;21.964;2023-02-11T08:16:39;100088.03;;;-1.73;67.80
57000;BME280;42891;50.006;21.964;2023-02-11T08:20:39;100091.31;;;-1.64;67.42
57000;BME280;42891;50.006;21.964;2023-02-11T08:24:40;100072.50;;;-1.73;66.74
57000;BME280;42891;50.006;21.964;2023-02-11T08:28:42;100049.41;;;-1.82;66.16
57000;BME280;42891;50.006;21.964;2023-02-11T08:32:43;100057.81;;;-1.70;67.12
57000;BME280;42891;50.006;21.964;2023-02-11T08:36:44;100079.47;;;-1.34;66.87
57000;BME280;42891;50.006;21.964;2023-02-11T08:40:45;100076.34;;;-1.11;66.27
57000;BME280;42891;50.006;21.964;2023-02-11T08:44:46;100081.25;;;-1.38;66.21
57000;BME280;42891;50.006;21.964;2023-02-11T08:48:46;100074.53;;;-1.07;66.73
57000;BME280;42891;50.006;21.964;2023-02-11T08:52:46;100048.88;;;-1.18;65.19
57000;BME280;42891;50.006;21.964;2023-02-11T08:56:50;100071.75;;;-0.99;65.84
57000;BME280;42891;50.006;21.964;2023-02-11T09:00:50;100056.22;;;-0.99;65.01
57000;BME280;42891;50.006;21.964;2023-02-11T09:04:51;100059.31;;;-0.85;65.76
57000;BME280;42891;50.006;21.964;2023-02-11T09:08:53;100045.16;;;-1.08;64.63
57000;BME280;42891;50.006;21.964;2023-02-11T09:12:54;100050.97;;;-0.98;65.89
57000;BME280;42891;50.006;21.964;2023-02-11T09:16:54;100068.78;;;-0.84;63.60
57000;BME280;42891;50.006;21.964;2023-02-11T09:21:06;100054.03;;;-0.80;64.17
57000;BME280;42891;50.006;21.964;2023-02-11T09:25:07;100032.84;;;-0.63;64.08
57000;BME280;42891;50.006;21.964;2023-02-11T09:29:07;100030.94;;;-0.57;64.16
57000;BME280;42891;50.006;21.964;2023-02-11T09:33:07;100036.84;;;-0.52;62.99
57000;BME280;42891;50.006;21.964;2023-02-11T09:37:07;100024.31;;;-0.69;63.07
57000;BME280;42891;50.006;21.964;2023-02-11T09:45:26;100022.28;;;-0.57;63.21
57000;BME280;42891;50.006;21.964;2023-02-11T09:49:37;100018.41;;;-0.41;63.42
57000;BME280;42891;50.006;21.964;2023-02-11T09:53:41;100010.66;;;-0.42;63.07
57000;BME280;42891;50.006;21.964;2023-02-11T09:57:42;100004.00;;;-0.51;63.07
57000;BME280;42891;50.006;21.964;2023-02-11T10:01:58;100014.25;;;-0.15;62.43
57000;BME280;42891;50.006;21.964;2023-02-11T10:06:19;100001.28;;;-0.15;62.09
57000;BME280;42891;50.006;21.964;2023-02-11T10:10:51;99987.03;;;-0.02;61.51
57000;BME280;42891;50.006;21.964;2023-02-11T10:23:53;99989.25;;;0.41;61.93
57000;BME280;42891;50.006;21.964;2023-02-11T10:27:58;99913.88;;;0.14;60.90
57000;BME280;42891;50.006;21.964;2023-02-11T10:32:03;99942.28;;;0.47;60.79
57000;BME280;42891;50.006;21.964;2023-02-11T10:36:05;99945.22;;;0.90;61.00
57000;BME280;42891;50.006;21.964;2023-02-11T10:40:12;99905.44;;;0.88;60.14
57000;BME280;42891;50.006;21.964;2023-02-11T10:44:31;99928.97;;;1.08;59.95
57000;BME280;42891;50.006;21.964;2023-02-11T10:52:41;99879.84;;;0.75;60.58
57000;BME280;42891;50.006;21.964;2023-02-11T10:56:47;99868.66;;;0.73;60.31
57000;BME280;42891;50.006;21.964;2023-02-11T11:00:53;99867.38;;;0.60;60.73
57000;BME280;42891;50.006;21.964;2023-02-11T11:04:55;99873.84;;;0.73;60.52
57000;BME280;42891;50.006;21.964;2023-02-11T11:08:56;99870.47;;;0.71;60.84
57000;BME280;42891;50.006;21.964;2023-02-11T11:12:57;99877.84;;;0.57;60.40
57000;BME280;42891;50.006;21.964;2023-02-11T11:16:57;99840.22;;;0.68;60.85
57000;BME280;42891;50.006;21.964;2023-02-11T11:21:00;99827.81;;;0.77;61.15
57000;BME280;42891;50.006;21.964;2023-02-11T11:25:01;99836.50;;;0.76;60.80
57000;BME280;42891;50.006;21.964;2023-02-11T11:29:08;99810.19;;;0.85;60.66
57000;BME280;42891;50.006;21.964;2023-02-11T11:33:19;99804.59;;;0.96;60.90
57000;BME280;42891;50.006;21.964;2023-02-11T11:37:24;99781.78;;;0.79;60.23
57000;BME280;42891;50.006;21.964;2023-02-11T11:41:26;99791.25;;;1.05;61.00
57000;BME280;42891;50.006;21.964;2023-02-11T11:45:27;99804.19;;;1.07;60.91
57000;BME280;42891;50.006;21.964;2023-02-11T11:49:33;99778.31;;;1.04;60.42
57000;BME280;42891;50.006;21.964;2023-02-11T11:53:47;99788.25;;;1.16;60.22
57000;BME280;42891;50.006;21.964;2023-02-11T11:57:50;99765.41;;;1.24;59.99
57000;BME280;42891;50.006;21.964;2023-02-11T12:02:21;99811.25;;;1.50;60.40
57000;BME280;42891;50.006;21.964;2023-02-11T12:06:43;99813.25;;;1.44;60.30
57000;BME280;42891;50.006;21.964;2023-02-11T12:19:19;99821.28;;;2.06;59.80
57000;BME280;42891;50.006;21.964;2023-02-11T12:28:10;99811.19;;;2.18;58.85
57000;BME280;42891;50.006;21.964;2023-02-11T12:32:24;99801.88;;;2.13;58.20
57000;BME280;42891;50.006;21.964;2023-02-11T12:40:54;99803.88;;;2.06;57.77
57000;BME280;42891;50.006;21.964;2023-02-11T12:57:56;99782.50;;;1.98;58.66
57000;BME280;42891;50.006;21.964;2023-02-11T13:02:00;99786.13;;;1.94;58.60
57000;BME280;42891;50.006;21.964;2023-02-11T13:06:08;99757.22;;;2.00;59.30
57000;BME280;42891;50.006;21.964;2023-02-11T13:14:22;99715.91;;;1.70;59.28
57000;BME280;42891;50.006;21.964;2023-02-11T13:22:40;99750.50;;;1.74;60.48
57000;BME280;42891;50.006;21.964;2023-02-11T13:31:02;99726.53;;;1.86;60.27
57000;BME280;42891;50.006;21.964;2023-02-11T13:35:37;99701.72;;;1.77;60.88
57000;BME280;42891;50.006;21.964;2023-02-11T13:39:38;99713.72;;;1.81;60.86
57000;BME280;42891;50.006;21.964;2023-02-11T13:43:38;99693.16;;;1.75;61.21
57000;BME280;42891;50.006;21.964;2023-02-11T13:47:39;99680.56;;;1.64;60.97
57000;BME280;42891;50.006;21.964;2023-02-11T13:51:41;99697.16;;;1.62;61.55
57000;BME280;42891;50.006;21.964;2023-02-11T13:55:46;99702.38;;;1.40;62.21
57000;BME280;42891;50.006;21.964;2023-02-11T14:04:26;99743.19;;;1.61;62.19
57000;BME280;42891;50.006;21.964;2023-02-11T14:13:32;99766.09;;;1.29;62.69
57000;BME280;42891;50.006;21.964;2023-02-11T14:17:33;99763.16;;;1.15;63.05
57000;BME280;42891;50.006;21.964;2023-02-11T14:21:38;99748.63;;;1.09;64.66
57000;BME280;42891;50.006;21.964;2023-02-11T14:25:42;99744.94;;;0.91;66.90
57000;BME280;42891;50.006;21.964;2023-02-11T14:30:10;99774.13;;;1.23;69.27
57000;BME280;42891;50.006;21.964;2023-02-11T14:38:30;99755.19;;;0.96;68.76
57000;BME280;42891;50.006;21.964;2023-02-11T14:42:36;99761.19;;;0.98;68.81
57000;BME280;42891;50.006;21.964;2023-02-11T14:46:37;99761.75;;;0.82;70.67
57000;BME280;42891;50.006;21.964;2023-02-11T14:50:44;99748.34;;;0.70;72.32
57000;BME280;42891;50.006;21.964;2023-02-11T14:54:47;99718.97;;;0.42;74.30
57000;BME280;42891;50.006;21.964;2023-02-11T14:58:49;99733.75;;;0.40;76.69
57000;BME280;42891;50.006;21.964;2023-02-11T15:02:50;99733.31;;;0.53;77.62
57000;BME280;42891;50.006;21.964;2023-02-11T15:06:53;99725.94;;;0.42;78.04
57000;BME280;42891;50.006;21.964;2023-02-11T15:10:54;99729.78;;;0.30;80.42
57000;BME280;42891;50.006;21.964;2023-02-11T15:14:57;99716.69;;;0.33;79.78
57000;BME280;42891;50.006;21.964;2023-02-11T15:19:02;99734.03;;;0.32;80.49
57000;BME280;42891;50.006;21.964;2023-02-11T15:23:07;99733.22;;;0.05;82.17
57000;BME280;42891;50.006;21.964;2023-02-11T15:31:16;99704.19;;;-0.33;86.63
57000;BME280;42891;50.006;21.964;2023-02-11T15:35:17;99721.91;;;-0.19;88.39
57000;BME280;42891;50.006;21.964;2023-02-11T15:39:28;99725.28;;;-0.17;90.03
57000;BME280;42891;50.006;21.964;2023-02-11T15:47:52;99745.22;;;-0.18;90.67
57000;BME280;42891;50.006;21.964;2023-02-11T15:51:54;99741.69;;;-0.15;91.95
57000;BME280;42891;50.006;21.964;2023-02-11T15:56:17;99744.34;;;-0.45;92.39
57000;BME280;42891;50.006;21.964;2023-02-11T16:00:21;99749.63;;;-0.48;93.07
57000;BME280;42891;50.006;21.964;2023-02-11T16:04:24;99741.47;;;-0.64;93.40
57000;BME280;42891;50.006;21.964;2023-02-11T16:08:27;99738.50;;;-0.52;92.63
57000;BME280;42891;50.006;21.964;2023-02-11T16:12:31;99731.63;;;-0.53;91.79
57000;BME280;42891;50.006;21.964;2023-02-11T16:16:32;99763.88;;;-0.33;90.96
57000;BME280;42891;50.006;21.964;2023-02-11T16:20:33;99757.88;;;-0.35;92.00
57000;BME280;42891;50.006;21.964;2023-02-11T16:24:35;99757.53;;;-0.24;91.43
57000;BME280;42891;50.006;21.964;2023-02-11T16:28:37;99762.34;;;-0.39;92.17
57000;BME280;42891;50.006;21.964;2023-02-11T16:32:38;99754.03;;;-0.50;93.18
57000;BME280;42891;50.006;21.964;2023-02-11T16:36:38;99729.25;;;-0.60;93.99
57000;BME280;42891;50.006;21.964;2023-02-11T16:40:38;99730.75;;;-0.81;97.33
57000;BME280;42891;50.006;21.964;2023-02-11T16:44:39;99761.31;;;-0.63;97.78
57000;BME280;42891;50.006;21.964;2023-02-11T16:48:39;99763.13;;;-0.65;96.85
57000;BME280;42891;50.006;21.964;2023-02-11T16:52:41;99783.06;;;-0.67;96.32
57000;BME280;42891;50.006;21.964;2023-02-11T16:56:42;99756.81;;;-0.56;96.96
57000;BME280;42891;50.006;21.964;2023-02-11T17:00:44;99772.50;;;-0.32;95.70
57000;BME280;42891;50.006;21.964;2023-02-11T17:04:45;99768.34;;;-0.38;95.18
57000;BME280;42891;50.006;21.964;2023-02-11T17:08:46;99777.44;;;-0.53;95.83
57000;BME280;42891;50.006;21.964;2023-02-11T17:12:47;99763.38;;;-0.46;95.33
57000;BME280;42891;50.006;21.964;2023-02-11T17:16:48;99780.50;;;-0.39;95.18
57000;BME280;42891;50.006;21.964;2023-02-11T17:20:48;99776.34;;;-0.44;94.79
57000;BME280;42891;50.006;21.964;2023-02-11T17:24:48;99767.19;;;-0.56;94.97
57000;BME280;42891;50.006;21.964;2023-02-11T17:28:49;99771.75;;;-0.64;95.17
57000;BME280;42891;50.006;21.964;2023-02-11T17:32:49;99770.09;;;-0.67;95.47
57000;BME280;42891;50.006;21.964;2023-02-11T17:36:49;99754.94;;;-0.51;95.47
57000;BME280;42891;50.006;21.964;2023-02-11T17:40:58;99751.72;;;-0.59;95.26
57000;BME280;42891;50.006;21.964;2023-02-11T17:44:59;99766.69;;;-0.41;95.23
57000;BME280;42891;50.006;21.964;2023-02-11T17:49:00;99759.91;;;-0.45;95.62
57000;BME280;42891;50.006;21.964;2023-02-11T17:53:01;99758.19;;;-0.46;95.24
57000;BME280;42891;50.006;21.964;2023-02-11T17:57:01;99763.31;;;-0.43;95.11
57000;BME280;42891;50.006;21.964;2023-02-11T18:01:01;99762.28;;;-0.37;95.24
57000;BME280;42891;50.006;21.964;2023-02-11T18:05:02;99774.88;;;-0.25;96.08
57000;BME280;42891;50.006;21.964;2023-02-11T18:09:02;99765.88;;;-0.14;94.31
57000;BME280;42891;50.006;21.964;2023-02-11T18:13:03;99775.63;;;0.06;93.76
57000;BME280;42891;50.006;21.964;2023-02-11T18:17:03;99791.44;;;-0.02;93.60
57000;BME280;42891;50.006;21.964;2023-02-11T18:21:04;99775.28;;;-0.10;94.80
57000;BME280;42891;50.006;21.964;2023-02-11T18:25:07;99784.47;;;0.00;94.92
57000;BME280;42891;50.006;21.964;2023-02-11T18:29:09;99774.16;;;-0.03;94.65
57000;BME280;42891;50.006;21.964;2023-02-11T18:33:10;99772.38;;;-0.01;94.99
57000;BME280;42891;50.006;21.964;2023-02-11T18:37:13;99775.94;;;-0.04;95.26
57000;BME280;42891;50.006;21.964;2023-02-11T18:41:15;99759.53;;;-0.06;95.31
57000;BME280;42891;50.006;21.964;2023-02-11T18:45:15;99762.00;;;-0.01;96.07
57000;BME280;42891;50.006;21.964;2023-02-11T18:49:16;99766.97;;;0.05;96.48
57000;BME280;42891;50.006;21.964;2023-02-11T18:53:16;99773.63;;;0.14;96.19
57000;BME280;42891;50.006;21.964;2023-02-11T18:57:16;99781.09;;;0.23;95.86
57000;BME280;42891;50.006;21.964;2023-02-11T19:01:19;99777.31;;;0.33;96.55
57000;BME280;42891;50.006;21.964;2023-02-11T19:05:20;99779.22;;;0.54;95.35
57000;BME280;42891;50.006;21.964;2023-02-11T19:09:20;99781.34;;;0.42;95.91
57000;BME280;42891;50.006;21.964;2023-02-11T19:13:21;99792.19;;;0.54;96.32
57000;BME280;42891;50.006;21.964;2023-02-11T19:17:21;99792.97;;;0.57;96.99
57000;BME280;42891;50.006;21.964;2023-02-11T19:21:21;99793.19;;;0.75;97.17
57000;BME280;42891;50.006;21.964;2023-02-11T19:25:21;99789.72;;;0.50;97.81
57000;BME280;42891;50.006;21.964;2023-02-11T19:29:22;99799.63;;;0.64;97.93
57000;BME280;42891;50.006;21.964;2023-02-11T19:33:23;99803.13;;;0.63;97.74
57000;BME280;42891;50.006;21.964;2023-02-11T19:37:23;99787.09;;;0.76;97.31
57000;BME280;42891;50.006;21.964;2023-02-11T19:41:23;99762.66;;;0.56;97.80
57000;BME280;42891;50.006;21.964;2023-02-11T19:45:23;99791.69;;;0.93;97.73
57000;BME280;42891;50.006;21.964;2023-02-11T19:49:26;99791.38;;;1.02;97.46
57000;BME280;42891;50.006;21.964;2023-02-11T19:53:27;99791.09;;;1.10;98.30
57000;BME280;42891;50.006;21.964;2023-02-11T19:57:27;99805.56;;;1.17;98.55
57000;BME280;42891;50.006;21.964;2023-02-11T20:01:27;99778.81;;;1.13;98.45
57000;BME280;42891;50.006;21.964;2023-02-11T20:05:27;99804.09;;;1.33;98.38
57000;BME280;42891;50.006;21.964;2023-02-11T20:09:28;99781.13;;;1.21;99.06
57000;BME280;42891;50.006;21.964;2023-02-11T20:13:30;99763.88;;;1.18;100.00
57000;BME280;42891;50.006;21.964;2023-02-11T20:17:30;99810.91;;;1.60;100.00
57000;BME280;42891;50.006;21.964;2023-02-11T20:21:31;99800.13;;;1.69;100.00
57000;BME280;42891;50.006;21.964;2023-02-11T20:25:31;99801.28;;;1.84;100.00
57000;BME280;42891;50.006;21.964;2023-02-11T20:29:31;99814.06;;;1.90;100.00
57000;BME280;42891;50.006;21.964;2023-02-11T20:33:32;99808.69;;;1.95;100.00
57000;BME280;42891;50.006;21.964;2023-02-11T20:37:34;99807.66;;;1.99;100.00
57000;BME280;42891;50.006;21.964;2023-02-11T20:41:35;99821.31;;;2.04;100.00
57000;BME280;42891;50.006;21.964;2023-02-11T20:45:38;99801.50;;;2.00;100.00
57000;BME280;42891;50.006;21.964;2023-02-11T20:49:38;99817.38;;;2.16;100.00
57000;BME280;42891;50.006;21.964;2023-02-11T20:53:40;99819.22;;;2.14;100.00
57000;BME280;42891;50.006;21.964;2023-02-11T20:57:46;99800.66;;;1.99;100.00
57000;BME280;42891;50.006;21.964;2023-02-11T21:01:49;99812.44;;;2.10;100.00
57000;BME280;42891;50.006;21.964;2023-02-11T21:05:49;99812.16;;;2.16;100.00
57000;BME280;42891;50.006;21.964;2023-02-11T21:09:50;99807.78;;;2.16;100.00
57000;BME280;42891;50.006;21.964;2023-02-11T21:13:50;99834.78;;;2.36;100.00
57000;BME280;42891;50.006;21.964;2023-02-11T21:17:50;99844.59;;;2.31;100.00
57000;BME280;42891;50.006;21.964;2023-02-11T21:21:51;99835.06;;;2.30;100.00
57000;BME280;42891;50.006;21.964;2023-02-11T21:25:52;99825.13;;;2.17;100.00
57000;BME280;42891;50.006;21.964;2023-02-11T21:29:53;99842.13;;;2.26;100.00
57000;BME280;42891;50.006;21.964;2023-02-11T21:33:53;99850.81;;;2.27;100.00
57000;BME280;42891;50.006;21.964;2023-02-11T21:37:54;99834.47;;;2.23;100.00
57000;BME280;42891;50.006;21.964;2023-02-11T21:41:54;99845.47;;;2.30;100.00
57000;BME280;42891;50.006;21.964;2023-02-11T21:45:55;99848.03;;;2.31;100.00
57000;BME280;42891;50.006;21.964;2023-02-11T21:49:55;99823.31;;;2.19;100.00
57000;BME280;42891;50.006;21.964;2023-02-11T21:53:57;99854.19;;;2.29;100.00
57000;BME280;42891;50.006;21.964;2023-02-11T21:57:58;99836.72;;;2.10;100.00
57000;BME280;42891;50.006;21.964;2023-02-11T22:01:58;99855.16;;;2.26;100.00
57000;BME280;42891;50.006;21.964;2023-02-11T22:05:59;99834.03;;;2.12;100.00
57000;BME280;42891;50.006;21.964;2023-02-11T22:09:59;99860.28;;;2.29;100.00
57000;BME280;42891;50.006;21.964;2023-02-11T22:14:00;99871.19;;;2.39;100.00
57000;BME280;42891;50.006;21.964;2023-02-11T22:18:00;99875.66;;;2.35;100.00
57000;BME280;42891;50.006;21.964;2023-02-11T22:22:00;99875.44;;;2.42;100.00
57000;BME280;42891;50.006;21.964;2023-02-11T22:26:19;99870.38;;;2.37;100.00
57000;BME280;42891;50.006;21.964;2023-02-11T22:30:20;99856.56;;;2.35;100.00
57000;BME280;42891;50.006;21.964;2023-02-11T22:34:20;99876.88;;;2.49;100.00
57000;BME280;42891;50.006;21.964;2023-02-11T22:38:20;99875.75;;;2.54;100.00
57000;BME280;42891;50.006;21.964;2023-02-11T22:42:21;99877.34;;;2.59;100.00
57000;BME280;42891;50.006;21.964;2023-02-11T22:46:21;99861.34;;;2.46;100.00
57000;BME280;42891;50.006;21.964;2023-02-11T22:50:22;99900.28;;;2.71;100.00
57000;BME280;42891;50.006;21.964;2023-02-11T22:54:22;99894.63;;;2.61;100.00
57000;BME280;42891;50.006;21.964;2023-02-11T22:58:23;99898.13;;;2.60;100.00
57000;BME280;42891;50.006;21.964;2023-02-11T23:02:23;99912.00;;;2.61;100.00